createdAt,value
2023-03-06T00:00:38.929Z,-1.91
2023-03-06T00:03:17.853Z,-1.93
2023-03-06T00:05:45.477Z,-1.96
2023-03-06T00:08:13.102Z,-1.98
2023-03-06T00:10:40.783Z,-2.00
2023-03-06T00:13:13.250Z,-2.02
2023-03-06T00:15:41.544Z,-2.04
2023-03-06T00:18:09.506Z,-2.06
2023-03-06T00:20:39.731Z,-2.07
2023-03-06T00:23:08.560Z,-2.09
2023-03-06T00:25:36.374Z,-2.12
2023-03-06T00:28:05.067Z,-2.14
2023-03-06T00:30:32.748Z,-2.17
2023-03-06T00:33:00.310Z,-2.20
2023-03-06T00:35:27.954Z,-2.23
2023-03-06T00:37:55.513Z,-2.25
2023-03-06T00:40:23.173Z,-2.26
2023-03-06T00:42:50.765Z,-2.27
2023-03-06T00:45:18.362Z,-2.27
2023-03-06T00:47:45.965Z,-2.30
2023-03-06T00:50:13.513Z,-2.31
2023-03-06T00:52:41.092Z,-2.32
2023-03-06T00:55:09.925Z,-2.33
2023-03-06T00:57:37.833Z,-2.35
2023-03-06T01:00:06.271Z,-2.37
2023-03-06T01:02:34.065Z,-2.37
2023-03-06T01:05:02.214Z,-2.37
2023-03-06T01:07:29.755Z,-2.38
2023-03-06T01:09:57.235Z,-2.39
2023-03-06T01:12:24.880Z,-2.40
2023-03-06T01:14:52.457Z,-2.41
2023-03-06T01:17:20.062Z,-2.42
2023-03-06T01:19:47.655Z,-2.44
2023-03-06T01:22:15.179Z,-2.42
2023-03-06T01:24:42.829Z,-2.41
2023-03-06T01:27:10.433Z,-2.40
2023-03-06T01:29:38.005Z,-2.39
2023-03-06T01:32:05.909Z,-2.40
2023-03-06T01:34:33.570Z,-2.41
2023-03-06T01:37:01.112Z,-2.41
2023-03-06T01:39:28.670Z,-2.43
2023-03-06T01:41:56.219Z,-2.44
2023-03-06T01:44:23.917Z,-2.46
2023-03-06T01:46:51.470Z,-2.48
2023-03-06T01:49:22.008Z,-2.49
2023-03-06T01:51:49.468Z,-2.50
2023-03-06T01:54:28.526Z,-2.52
2023-03-06T01:57:02.166Z,-2.57
2023-03-06T01:59:30.364Z,-2.66
2023-03-06T02:01:59.724Z,-2.74
2023-03-06T02:04:28.222Z,-2.77
2023-03-06T02:06:58.480Z,-2.80
2023-03-06T02:09:27.146Z,-2.83
2023-03-06T02:11:54.710Z,-2.84
2023-03-06T02:14:22.457Z,-2.82
2023-03-06T02:16:51.101Z,-2.78
2023-03-06T02:19:30.262Z,-2.72
2023-03-06T02:21:57.883Z,-2.65
2023-03-06T02:24:45.563Z,-2.60
2023-03-06T02:27:14.649Z,-2.55
2023-03-06T02:29:43.898Z,-2.51
2023-03-06T02:32:11.587Z,-2.48
2023-03-06T02:34:39.115Z,-2.45
2023-03-06T02:37:11.099Z,-2.43
2023-03-06T02:39:43.155Z,-2.40
2023-03-06T02:42:17.284Z,-2.37
2023-03-06T02:44:45.312Z,-2.35
2023-03-06T02:47:12.870Z,-2.31
2023-03-06T02:49:40.422Z,-2.28
2023-03-06T02:52:08.081Z,-2.23
2023-03-06T02:54:35.616Z,-2.18
2023-03-06T02:57:03.270Z,-2.11
2023-03-06T02:59:30.872Z,-2.05
2023-03-06T03:01:58.595Z,-1.99
2023-03-06T03:04:26.352Z,-1.95
2023-03-06T03:06:53.962Z,-1.91
2023-03-06T03:09:21.538Z,-1.88
2023-03-06T03:11:49.047Z,-1.86
2023-03-06T03:14:16.607Z,-1.83
2023-03-06T03:16:44.260Z,-1.82
2023-03-06T03:19:11.830Z,-1.80
2023-03-06T03:21:40.854Z,-1.79
2023-03-06T03:24:08.497Z,-1.79
2023-03-06T03:26:36.063Z,-1.77
2023-03-06T03:29:04.144Z,-1.77
2023-03-06T03:31:32.644Z,-1.76
2023-03-06T03:34:00.288Z,-1.77
2023-03-06T03:36:28.264Z,-1.77
2023-03-06T03:38:55.796Z,-1.77
2023-03-06T03:41:23.683Z,-1.77
2023-03-06T03:43:51.241Z,-1.78
2023-03-06T03:46:18.846Z,-1.79
2023-03-06T03:48:46.461Z,-1.80
2023-03-06T03:51:14.461Z,-1.80
2023-03-06T03:53:42.996Z,-1.81
2023-03-06T03:56:11.344Z,-1.83
2023-03-06T03:58:38.937Z,-1.88
2023-03-06T04:01:06.924Z,-1.94
2023-03-06T04:03:34.653Z,-2.00
2023-03-06T04:06:02.375Z,-2.06
2023-03-06T04:08:29.888Z,-2.13
2023-03-06T04:10:57.489Z,-2.21
2023-03-06T04:13:25.168Z,-2.31
2023-03-06T04:15:54.198Z,-2.40
2023-03-06T04:18:22.645Z,-2.50
2023-03-06T04:20:50.533Z,-2.60
2023-03-06T04:23:18.786Z,-2.71
2023-03-06T04:25:46.462Z,-2.80
2023-03-06T04:28:14.357Z,-2.90
2023-03-06T04:30:42.174Z,-2.97
2023-03-06T04:33:09.952Z,-3.05
2023-03-06T04:35:37.666Z,-3.13
2023-03-06T04:38:05.644Z,-3.28
2023-03-06T04:40:35.280Z,-3.45
2023-03-06T04:43:04.164Z,-3.61
2023-03-06T04:45:34.442Z,-3.74
2023-03-06T04:48:02.309Z,-3.88
2023-03-06T04:50:30.442Z,-3.99
2023-03-06T04:53:02.608Z,-4.07
2023-03-06T04:55:30.545Z,-4.14
2023-03-06T04:57:58.254Z,-4.18
2023-03-06T05:00:27.515Z,-4.19
2023-03-06T05:02:55.084Z,-4.19
2023-03-06T05:05:22.770Z,-4.18
2023-03-06T05:07:50.365Z,-4.14
2023-03-06T05:10:19.147Z,-4.09
2023-03-06T05:12:46.697Z,-4.04
2023-03-06T05:15:14.723Z,-4.01
2023-03-06T05:17:42.467Z,-3.96
2023-03-06T05:20:12.136Z,-3.91
2023-03-06T05:22:40.099Z,-3.83
2023-03-06T05:25:08.316Z,-3.70
2023-03-06T05:27:36.293Z,-3.56
2023-03-06T05:30:04.780Z,-3.43
2023-03-06T05:32:34.462Z,-3.30
2023-03-06T05:35:04.381Z,-3.15
2023-03-06T05:37:32.593Z,-3.01
2023-03-06T05:40:00.337Z,-2.88
2023-03-06T05:42:31.002Z,-2.76
2023-03-06T05:44:58.608Z,-2.63
2023-03-06T05:47:26.163Z,-2.50
2023-03-06T05:49:53.654Z,-2.34
2023-03-06T05:52:21.291Z,-2.18
2023-03-06T05:54:53.934Z,-2.03
2023-03-06T05:57:22.991Z,-1.88
2023-03-06T05:59:51.128Z,-1.75
2023-03-06T06:02:18.961Z,-1.62
2023-03-06T06:04:46.658Z,-1.49
2023-03-06T06:07:15.699Z,-1.36
2023-03-06T06:09:44.563Z,-1.22
2023-03-06T06:12:13.248Z,-1.11
2023-03-06T06:14:40.880Z,-1.01
2023-03-06T06:17:08.468Z,-0.94
2023-03-06T06:19:36.062Z,-0.88
2023-03-06T06:22:03.720Z,-0.80
2023-03-06T06:24:31.957Z,-0.73
2023-03-06T06:27:02.012Z,-0.65
2023-03-06T06:29:32.148Z,-0.53
2023-03-06T06:32:00.553Z,-0.45
2023-03-06T06:34:28.606Z,-0.40
2023-03-06T06:36:56.176Z,-0.34
2023-03-06T06:39:24.892Z,-0.30
2023-03-06T06:42:14.678Z,-0.25
2023-03-06T06:44:40.007Z,-0.22
2023-03-06T06:47:25.406Z,-0.20
2023-03-06T06:49:55.403Z,-0.16
2023-03-06T06:52:26.228Z,-0.11
2023-03-06T06:54:53.877Z,-0.06
2023-03-06T06:57:21.489Z,0.02
2023-03-06T06:59:50.203Z,0.15
2023-03-06T07:02:19.263Z,0.30
2023-03-06T07:05:02.516Z,0.44
2023-03-06T07:07:34.702Z,0.58
2023-03-06T07:10:11.117Z,0.64
2023-03-06T07:12:38.674Z,0.69
2023-03-06T07:15:06.886Z,0.71
2023-03-06T07:17:34.675Z,0.78
2023-03-06T07:20:02.387Z,0.85
2023-03-06T07:22:33.862Z,0.94
2023-03-06T07:25:09.597Z,1.07
2023-03-06T07:27:37.298Z,1.19
2023-03-06T07:30:05.891Z,1.25
2023-03-06T07:32:33.543Z,1.30
2023-03-06T07:35:19.036Z,1.38
2023-03-06T07:37:47.569Z,1.44
2023-03-06T07:40:15.284Z,1.54
2023-03-06T07:42:43.314Z,1.70
2023-03-06T07:45:11.971Z,1.94
2023-03-06T07:47:40.492Z,2.08
2023-03-06T07:50:08.939Z,2.11
2023-03-06T07:52:36.557Z,2.20
2023-03-06T07:55:04.442Z,2.24
2023-03-06T07:57:32.001Z,2.30
2023-03-06T07:59:59.551Z,2.32
2023-03-06T08:02:27.142Z,2.31
2023-03-06T08:04:55.611Z,2.30
2023-03-06T08:07:23.861Z,2.24
2023-03-06T08:09:51.385Z,2.18
2023-03-06T08:12:18.943Z,2.08
2023-03-06T08:14:46.516Z,2.03
2023-03-06T08:17:14.215Z,2.00
2023-03-06T08:19:41.784Z,1.97
2023-03-06T08:22:09.378Z,1.98
2023-03-06T08:24:37.062Z,2.07
2023-03-06T08:27:04.681Z,2.09
2023-03-06T08:29:32.427Z,2.15
2023-03-06T08:32:00.009Z,2.20
2023-03-06T08:34:27.729Z,2.23
2023-03-06T08:36:55.281Z,2.31
2023-03-06T08:39:22.844Z,2.39
2023-03-06T08:41:50.446Z,2.51
2023-03-06T08:44:18.027Z,2.62
2023-03-06T08:46:45.649Z,2.78
2023-03-06T08:49:13.776Z,2.91
2023-03-06T08:51:41.474Z,2.97
2023-03-06T08:54:12.452Z,3.04
2023-03-06T08:56:40.066Z,3.03
2023-03-06T08:59:07.612Z,3.05
2023-03-06T09:01:37.554Z,3.06
2023-03-06T09:04:08.680Z,3.16
2023-03-06T09:06:40.267Z,3.19
2023-03-06T09:09:08.838Z,3.22
2023-03-06T09:11:36.935Z,3.26
2023-03-06T09:14:05.715Z,3.34
2023-03-06T09:16:33.459Z,3.33
2023-03-06T09:19:01.127Z,3.31
2023-03-06T09:21:28.795Z,3.36
2023-03-06T09:23:56.568Z,3.39
2023-03-06T09:26:32.833Z,3.42
2023-03-06T09:29:07.736Z,3.42
2023-03-06T09:31:35.276Z,3.48
2023-03-06T09:34:02.911Z,3.60
2023-03-06T09:36:30.533Z,3.86
2023-03-06T09:38:58.091Z,4.04
2023-03-06T09:41:35.507Z,4.21
2023-03-06T09:44:16.068Z,4.30
2023-03-06T09:46:59.140Z,4.32
2023-03-06T09:49:44.602Z,4.48
2023-03-06T09:52:49.069Z,4.60
2023-03-06T09:55:20.397Z,4.54
2023-03-06T09:58:25.036Z,4.49
2023-03-06T10:00:59.688Z,4.57
2023-03-06T10:03:30.274Z,4.59
2023-03-06T10:06:33.177Z,4.61
2023-03-06T10:09:06.681Z,4.78
2023-03-06T10:11:37.933Z,5.03
2023-03-06T10:14:28.381Z,5.30
2023-03-06T10:16:55.989Z,5.75
2023-03-06T10:19:30.612Z,6.02
2023-03-06T10:22:44.785Z,6.16
2023-03-06T10:25:20.012Z,6.27
2023-03-06T10:27:58.068Z,6.29
2023-03-06T10:30:48.014Z,6.56
2023-03-06T10:33:45.899Z,6.89
2023-03-06T10:36:19.118Z,7.07
2023-03-06T10:38:47.914Z,7.26
2023-03-06T10:41:30.545Z,7.21
2023-03-06T10:44:01.195Z,7.10
2023-03-06T10:46:30.325Z,7.08
2023-03-06T10:49:06.629Z,6.99
2023-03-06T10:51:34.449Z,6.84
2023-03-06T10:54:19.689Z,6.86
2023-03-06T10:56:47.549Z,7.39
2023-03-06T10:59:16.548Z,8.05
2023-03-06T11:01:50.480Z,8.54
2023-03-06T11:04:23.460Z,8.68
2023-03-06T11:07:21.902Z,8.59
2023-03-06T11:09:58.390Z,8.11
2023-03-06T11:12:39.382Z,7.99
2023-03-06T11:15:08.290Z,7.82
2023-03-06T11:18:07.491Z,7.78
2023-03-06T11:20:55.526Z,7.42
2023-03-06T11:23:40.745Z,7.42
2023-03-06T11:26:17.458Z,7.49
2023-03-06T11:28:45.056Z,7.38
2023-03-06T11:31:18.079Z,7.34
2023-03-06T11:33:54.134Z,7.17
2023-03-06T11:36:25.260Z,7.06
2023-03-06T11:38:54.320Z,6.73
2023-03-06T11:41:30.943Z,6.53
2023-03-06T11:44:12.529Z,6.29
2023-03-06T11:46:45.088Z,6.15
2023-03-06T11:49:33.331Z,6.24
2023-03-06T11:52:09.961Z,6.30
2023-03-06T11:54:37.527Z,6.32
2023-03-06T11:57:14.574Z,6.15
2023-03-06T11:59:42.071Z,5.97
2023-03-06T12:02:28.000Z,5.88
2023-03-06T12:05:33.620Z,5.85
2023-03-06T12:08:19.838Z,5.86
2023-03-06T12:10:52.433Z,5.82
2023-03-06T12:13:30.605Z,5.85
2023-03-06T12:16:36.045Z,5.87
2023-03-06T12:19:25.521Z,5.93
2023-03-06T12:22:22.262Z,5.88
2023-03-06T12:25:22.192Z,5.83
2023-03-06T12:27:56.196Z,5.82
2023-03-06T12:30:40.559Z,5.81
2023-03-06T12:33:23.003Z,5.72
2023-03-06T12:35:55.600Z,5.63
2023-03-06T12:38:47.264Z,5.62
2023-03-06T12:41:42.733Z,5.89
2023-03-06T12:44:27.049Z,5.85
2023-03-06T12:46:59.459Z,5.85
2023-03-06T12:49:32.843Z,6.05
2023-03-06T12:52:02.058Z,6.03
2023-03-06T12:54:32.286Z,6.03
2023-03-06T12:57:00.662Z,6.03
2023-03-06T12:59:38.470Z,5.94
2023-03-06T13:02:25.073Z,5.87
2023-03-06T13:05:04.647Z,5.79
2023-03-06T13:07:50.739Z,5.82
2023-03-06T13:10:32.868Z,6.12
2023-03-06T13:13:00.355Z,6.53
2023-03-06T13:15:41.792Z,6.87
2023-03-06T13:18:21.404Z,7.20
2023-03-06T13:20:50.769Z,7.75
2023-03-06T13:23:30.623Z,8.40
2023-03-06T13:26:00.501Z,8.89
2023-03-06T13:28:47.460Z,9.24
2023-03-06T13:31:28.296Z,9.31
2023-03-06T13:34:04.051Z,9.09
2023-03-06T13:36:39.450Z,9.07
2023-03-06T13:39:09.325Z,8.94
2023-03-06T13:41:41.646Z,8.95
2023-03-06T13:44:24.514Z,8.47
2023-03-06T13:47:06.500Z,7.72
2023-03-06T13:49:35.183Z,7.21
2023-03-06T13:52:02.660Z,6.81
2023-03-06T13:54:42.283Z,6.64
2023-03-06T13:57:30.972Z,6.60
2023-03-06T14:00:34.501Z,6.48
2023-03-06T14:03:21.071Z,6.19
2023-03-06T14:05:50.786Z,6.07
2023-03-06T14:08:32.980Z,6.12
2023-03-06T14:11:20.507Z,5.98
2023-03-06T14:13:56.654Z,5.86
2023-03-06T14:16:40.484Z,5.71
2023-03-06T14:19:17.287Z,5.55
2023-03-06T14:21:44.793Z,5.51
2023-03-06T14:24:18.231Z,5.48
2023-03-06T14:26:51.860Z,5.43
2023-03-06T14:29:22.196Z,5.35
2023-03-06T14:31:52.646Z,5.29
2023-03-06T14:34:24.369Z,5.21
2023-03-06T14:36:54.845Z,5.14
2023-03-06T14:39:31.738Z,5.03
2023-03-06T14:42:17.479Z,4.88
2023-03-06T14:44:45.994Z,4.75
2023-03-06T14:47:25.201Z,4.61
2023-03-06T14:50:17.483Z,4.47
2023-03-06T14:52:45.815Z,4.27
2023-03-06T14:55:23.144Z,3.93
2023-03-06T14:58:16.452Z,3.58
2023-03-06T15:00:48.630Z,3.30
2023-03-06T15:03:34.209Z,3.11
2023-03-06T15:06:02.970Z,2.97
2023-03-06T15:08:33.292Z,2.92
2023-03-06T15:11:06.352Z,2.87
2023-03-06T15:13:34.381Z,2.86
2023-03-06T15:16:04.502Z,2.83
2023-03-06T15:18:54.176Z,2.81
2023-03-06T15:21:23.925Z,2.81
2023-03-06T15:23:53.751Z,2.81
2023-03-06T15:26:37.107Z,2.82
2023-03-06T15:29:11.109Z,2.83
2023-03-06T15:31:44.525Z,2.81
2023-03-06T15:34:12.040Z,2.81
2023-03-06T15:36:46.821Z,2.78
2023-03-06T15:39:32.676Z,2.77
2023-03-06T15:42:14.572Z,2.75
2023-03-06T15:44:42.610Z,2.71
2023-03-06T15:47:13.265Z,2.68
2023-03-06T15:49:40.831Z,2.51
2023-03-06T15:52:09.166Z,2.31
2023-03-06T15:54:36.920Z,2.15
2023-03-06T15:57:06.880Z,1.99
2023-03-06T15:59:41.712Z,1.84
2023-03-06T16:02:16.613Z,1.73
2023-03-06T16:04:45.337Z,1.66
2023-03-06T16:07:13.360Z,1.62
2023-03-06T16:09:42.181Z,1.58
2023-03-06T16:12:18.715Z,1.54
2023-03-06T16:14:47.542Z,1.50
2023-03-06T16:17:15.965Z,1.47
2023-03-06T16:19:44.046Z,1.43
2023-03-06T16:22:11.936Z,1.40
2023-03-06T16:24:39.534Z,1.37
2023-03-06T16:27:07.231Z,1.33
2023-03-06T16:29:34.781Z,1.29
2023-03-06T16:32:02.565Z,1.26
2023-03-06T16:34:30.261Z,1.23
2023-03-06T16:36:57.856Z,1.19
2023-03-06T16:39:25.447Z,1.18
2023-03-06T16:41:53.288Z,1.15
2023-03-06T16:44:21.180Z,1.14
2023-03-06T16:46:50.084Z,1.13
2023-03-06T16:49:21.500Z,1.11
2023-03-06T16:51:49.589Z,1.10
2023-03-06T16:54:17.862Z,1.09
2023-03-06T16:56:46.096Z,1.06
2023-03-06T16:59:13.668Z,1.05
2023-03-06T17:01:41.884Z,1.04
2023-03-06T17:04:09.719Z,1.03
2023-03-06T17:06:37.373Z,1.03
2023-03-06T17:09:05.282Z,1.03
2023-03-06T17:11:33.046Z,1.03
2023-03-06T17:14:01.732Z,1.03
2023-03-06T17:16:29.354Z,1.05
2023-03-06T17:18:57.204Z,1.04
2023-03-06T17:21:25.214Z,1.04
2023-03-06T17:23:52.764Z,1.04
2023-03-06T17:26:20.335Z,1.01
2023-03-06T17:28:48.374Z,0.98
2023-03-06T17:31:22.261Z,0.94
2023-03-06T17:33:50.634Z,0.91
2023-03-06T17:36:18.422Z,0.90
2023-03-06T17:38:46.304Z,0.88
2023-03-06T17:41:14.549Z,0.85
2023-03-06T17:43:42.223Z,0.82
2023-03-06T17:46:12.574Z,0.80
2023-03-06T17:48:40.432Z,0.78
2023-03-06T17:51:08.707Z,0.75
2023-03-06T17:53:36.566Z,0.72
2023-03-06T17:56:09.571Z,0.69
2023-03-06T17:58:37.102Z,0.67
2023-03-06T18:01:19.846Z,0.66
2023-03-06T18:03:49.944Z,0.63
2023-03-06T18:06:18.293Z,0.63
2023-03-06T18:08:46.013Z,0.62
2023-03-06T18:11:14.347Z,0.62
2023-03-06T18:13:44.446Z,0.63
2023-03-06T18:16:13.806Z,0.63
2023-03-06T18:18:41.573Z,0.63
2023-03-06T18:21:12.279Z,0.62
2023-03-06T18:23:41.552Z,0.61
2023-03-06T18:26:18.391Z,0.60
2023-03-06T18:28:48.936Z,0.59
2023-03-06T18:31:19.362Z,0.57
2023-03-06T18:33:48.563Z,0.55
2023-03-06T18:36:16.592Z,0.54
2023-03-06T18:38:44.679Z,0.52
2023-03-06T18:41:13.657Z,0.51
2023-03-06T18:43:41.258Z,0.49
2023-03-06T18:46:09.494Z,0.48
2023-03-06T18:48:37.359Z,0.46
2023-03-06T18:51:06.598Z,0.45
2023-03-06T18:53:35.318Z,0.46
2023-03-06T18:56:04.728Z,0.44
2023-03-06T18:58:32.709Z,0.40
2023-03-06T19:01:08.533Z,0.38
2023-03-06T19:03:36.512Z,0.35
2023-03-06T19:06:10.429Z,0.34
2023-03-06T19:08:39.542Z,0.32
2023-03-06T19:11:09.950Z,0.29
2023-03-06T19:13:37.560Z,0.27
2023-03-06T19:16:06.365Z,0.25
2023-03-06T19:18:34.347Z,0.24
2023-03-06T19:21:14.039Z,0.24
2023-03-06T19:23:42.399Z,0.23
2023-03-06T19:26:11.039Z,0.22
2023-03-06T19:28:40.392Z,0.22
2023-03-06T19:31:14.341Z,0.22
2023-03-06T19:33:43.079Z,0.23
2023-03-06T19:36:13.493Z,0.22
2023-03-06T19:38:41.871Z,0.22
2023-03-06T19:41:13.956Z,0.20
2023-03-06T19:43:42.763Z,0.20
2023-03-06T19:46:12.296Z,0.20
2023-03-06T19:48:41.335Z,0.19
2023-03-06T19:51:09.787Z,0.18
2023-03-06T19:53:37.880Z,0.18
2023-03-06T19:56:15.758Z,0.18
2023-03-06T19:58:43.440Z,0.19
2023-03-06T20:01:19.580Z,0.20
2023-03-06T20:03:47.232Z,0.22
2023-03-06T20:06:19.683Z,0.23
2023-03-06T20:08:47.660Z,0.26
2023-03-06T20:11:18.123Z,0.27
2023-03-06T20:13:47.306Z,0.29
2023-03-06T20:16:17.238Z,0.29
2023-03-06T20:18:45.460Z,0.30
2023-03-06T20:21:16.404Z,0.29
2023-03-06T20:23:44.048Z,0.27
2023-03-06T20:26:13.291Z,0.26
2023-03-06T20:28:42.826Z,0.23
2023-03-06T20:31:13.880Z,0.21
2023-03-06T20:33:41.669Z,0.20
2023-03-06T20:36:19.484Z,0.18
2023-03-06T20:38:47.327Z,0.16
2023-03-06T20:41:21.618Z,0.15
2023-03-06T20:43:49.978Z,0.14
2023-03-06T20:46:19.114Z,0.13
2023-03-06T20:48:51.597Z,0.13
2023-03-06T20:51:20.713Z,0.15
2023-03-06T20:53:49.981Z,0.16
2023-03-06T20:56:19.886Z,0.16
2023-03-06T20:58:47.454Z,0.16
2023-03-06T21:01:23.387Z,0.14
2023-03-06T21:03:51.513Z,0.13
2023-03-06T21:06:19.975Z,0.11
2023-03-06T21:08:47.536Z,0.08
2023-03-06T21:11:15.908Z,0.06
2023-03-06T21:13:44.173Z,0.03
2023-03-06T21:16:18.618Z,-0.01
2023-03-06T21:18:46.761Z,-0.05
2023-03-06T21:21:18.951Z,-0.09
2023-03-06T21:23:47.782Z,-0.13
2023-03-06T21:26:21.042Z,-0.16
2023-03-06T21:28:49.146Z,-0.16
2023-03-06T21:31:18.650Z,-0.18
2023-03-06T21:33:47.789Z,-0.19
2023-03-06T21:36:15.737Z,-0.20
2023-03-06T21:38:43.410Z,-0.21
2023-03-06T21:41:14.293Z,-0.22
2023-03-06T21:43:42.180Z,-0.25
2023-03-06T21:46:10.512Z,-0.25
2023-03-06T21:48:38.554Z,-0.27
2023-03-06T21:51:12.614Z,-0.30
2023-03-06T21:53:44.062Z,-0.32
2023-03-06T21:56:12.795Z,-0.35
2023-03-06T21:58:40.442Z,-0.38
2023-03-06T22:01:09.755Z,-0.41
2023-03-06T22:03:37.494Z,-0.44
2023-03-06T22:06:16.817Z,-0.46
2023-03-06T22:08:45.036Z,-0.49
2023-03-06T22:11:15.210Z,-0.52
2023-03-06T22:13:43.459Z,-0.55
2023-03-06T22:16:11.522Z,-0.59
2023-03-06T22:18:39.593Z,-0.62
2023-03-06T22:21:09.287Z,-0.64
2023-03-06T22:23:36.838Z,-0.68
2023-03-06T22:26:06.596Z,-0.72
2023-03-06T22:28:34.252Z,-0.76
2023-03-06T22:31:07.182Z,-0.81
2023-03-06T22:33:35.479Z,-0.83
2023-03-06T22:36:08.980Z,-0.87
2023-03-06T22:38:39.689Z,-0.91
2023-03-06T22:41:08.352Z,-0.93
2023-03-06T22:43:36.951Z,-0.94
2023-03-06T22:46:07.684Z,-0.96
2023-03-06T22:48:35.350Z,-0.97
2023-03-06T22:51:05.195Z,-0.96
2023-03-06T22:53:33.604Z,-0.95
2023-03-06T22:56:03.600Z,-0.92
2023-03-06T22:58:33.356Z,-0.90
2023-03-06T23:01:12.957Z,-0.85
2023-03-06T23:03:46.152Z,-0.82
2023-03-06T23:06:18.573Z,-0.77
2023-03-06T23:08:52.327Z,-0.73
2023-03-06T23:11:21.146Z,-0.70
2023-03-06T23:13:48.926Z,-0.67
2023-03-06T23:16:16.520Z,-0.68
2023-03-06T23:18:44.248Z,-0.69
2023-03-06T23:21:16.942Z,-0.71
2023-03-06T23:23:48.884Z,-0.71
2023-03-06T23:26:18.147Z,-0.71
2023-03-06T23:28:45.770Z,-0.69
2023-03-06T23:31:19.737Z,-0.69
2023-03-06T23:33:47.357Z,-0.69
2023-03-06T23:36:16.726Z,-0.70
2023-03-06T23:38:44.692Z,-0.71
2023-03-06T23:41:14.625Z,-0.71
2023-03-06T23:43:42.743Z,-0.70
2023-03-06T23:46:11.008Z,-0.71
2023-03-06T23:48:39.852Z,-0.71
2023-03-06T23:51:19.596Z,-0.72
2023-03-06T23:53:48.369Z,-0.72
2023-03-06T23:56:15.955Z,-0.70
2023-03-06T23:58:43.761Z,-0.69
